createdAt,value
2022-09-23T00:01:09.014Z,6.65
2022-09-23T00:03:37.481Z,6.28
2022-09-23T00:08:54.522Z,9.10
2022-09-23T00:11:23.804Z,7.85
2022-09-23T00:13:52.435Z,9.23
2022-09-23T00:16:22.443Z,8.10
2022-09-23T00:18:52.128Z,10.20
2022-09-23T00:21:21.415Z,9.30
2022-09-23T00:23:48.637Z,9.52
2022-09-23T00:26:17.257Z,6.03
2022-09-23T00:28:44.153Z,6.15
2022-09-23T00:31:13.504Z,6.90
2022-09-23T00:33:43.129Z,7.45
2022-09-23T00:36:12.158Z,6.65
2022-09-23T00:38:38.839Z,6.15
2022-09-23T00:41:06.541Z,8.20
2022-09-23T00:43:40.534Z,8.25
2022-09-23T00:46:09.495Z,7.47
2022-09-23T00:48:38.109Z,7.90
2022-09-23T00:51:05.359Z,9.65
2022-09-23T00:53:31.845Z,6.95
2022-09-23T00:56:02.812Z,6.32
2022-09-23T00:58:32.261Z,7.43
2022-09-23T01:01:02.797Z,6.63
2022-09-23T01:03:29.797Z,7.88
2022-09-23T01:05:56.993Z,6.47
2022-09-23T01:08:24.133Z,7.50
2022-09-23T01:11:06.123Z,8.65
2022-09-23T01:13:52.569Z,7.38
2022-09-23T01:16:36.695Z,9.63
2022-09-23T01:19:35.033Z,6.70
2022-09-23T01:22:26.570Z,6.68
2022-09-23T01:25:25.414Z,8.90
2022-09-23T01:28:12.435Z,10.02
2022-09-23T01:31:14.614Z,6.75
2022-09-23T01:33:52.030Z,9.70
2022-09-23T01:36:39.855Z,8.63
2022-09-23T01:39:11.628Z,7.22
2022-09-23T01:42:02.761Z,8.45
2022-09-23T01:44:34.945Z,8.68
2022-09-23T01:47:14.158Z,9.05
2022-09-23T01:49:57.574Z,9.73
2022-09-23T01:52:32.742Z,10.07
2022-09-23T01:57:45.526Z,8.60
2022-09-23T02:00:15.473Z,7.97
2022-09-23T02:03:07.635Z,7.20
2022-09-23T02:05:40.175Z,8.70
2022-09-23T02:08:10.880Z,9.20
2022-09-23T02:10:44.178Z,8.93
2022-09-23T02:13:18.076Z,9.68
2022-09-23T02:15:50.130Z,9.57
2022-09-23T02:18:26.616Z,11.68
2022-09-23T02:21:00.515Z,8.52
2022-09-23T02:23:34.412Z,10.13
2022-09-23T02:26:14.626Z,8.10
2022-09-23T02:28:48.190Z,7.75
2022-09-23T02:31:20.690Z,7.38
2022-09-23T02:33:55.112Z,8.57
2022-09-23T02:36:36.810Z,9.10
2022-09-23T02:39:06.166Z,8.82
2022-09-23T02:41:37.384Z,10.82
2022-09-23T02:44:07.945Z,9.85
2022-09-23T02:46:34.529Z,10.93
2022-09-23T02:49:31.224Z,8.00
2022-09-23T02:52:00.852Z,9.38
2022-09-23T02:54:28.700Z,10.23
2022-09-23T02:56:55.464Z,9.18
2022-09-23T02:59:23.219Z,11.77
2022-09-23T03:02:23.804Z,20.30
2022-09-23T03:05:18.163Z,9.10
2022-09-23T03:08:01.654Z,10.60
2022-09-23T03:10:36.376Z,10.77
2022-09-23T03:18:56.704Z,12.27
2022-09-23T03:21:29.227Z,15.10
2022-09-23T03:23:59.774Z,14.68
2022-09-23T03:26:32.175Z,12.52
2022-09-23T03:29:02.818Z,15.75
2022-09-23T03:31:30.184Z,17.35
2022-09-23T03:33:59.108Z,14.00
2022-09-23T03:36:53.924Z,18.08
2022-09-23T03:39:40.948Z,25.92
2022-09-23T03:42:16.989Z,20.73
2022-09-23T03:44:45.507Z,19.10
2022-09-23T03:47:13.794Z,16.65
2022-09-23T03:49:44.899Z,11.90
2022-09-23T03:52:11.526Z,12.45
2022-09-23T03:54:38.020Z,11.10
2022-09-23T03:57:04.676Z,11.13
2022-09-23T03:59:31.733Z,11.27
2022-09-23T04:01:59.614Z,10.65
2022-09-23T04:04:27.820Z,10.50
2022-09-23T04:06:57.425Z,8.90
2022-09-23T04:09:24.133Z,8.02
2022-09-23T04:11:51.475Z,10.20
2022-09-23T04:14:19.346Z,9.82
2022-09-23T04:16:46.953Z,11.75
2022-09-23T04:19:14.532Z,13.27
2022-09-23T04:21:41.962Z,10.20
2022-09-23T04:24:09.289Z,11.90
2022-09-23T04:26:36.597Z,13.43
2022-09-23T04:29:04.893Z,14.43
2022-09-23T04:31:32.276Z,14.10
2022-09-23T04:33:59.232Z,13.65
2022-09-23T04:36:25.996Z,18.33
2022-09-23T04:38:52.508Z,15.55
2022-09-23T04:41:19.483Z,18.35
2022-09-23T04:43:46.163Z,19.85
2022-09-23T04:46:14.213Z,12.80
2022-09-23T04:48:41.780Z,16.85
2022-09-23T04:51:18.320Z,15.90
2022-09-23T04:53:46.839Z,12.55
2022-09-23T04:56:25.043Z,13.45
2022-09-23T04:58:51.653Z,12.75
2022-09-23T05:01:24.241Z,11.63
2022-09-23T05:03:53.000Z,13.15
2022-09-23T05:06:20.435Z,12.27
2022-09-23T05:08:55.073Z,13.73
2022-09-23T05:11:22.063Z,14.30
2022-09-23T05:13:49.929Z,13.25
2022-09-23T05:16:17.714Z,12.15
2022-09-23T05:18:45.174Z,12.75
2022-09-23T05:21:13.258Z,13.75
2022-09-23T05:23:40.775Z,11.23
2022-09-23T05:26:09.944Z,15.02
2022-09-23T05:28:39.233Z,13.63
2022-09-23T05:31:19.967Z,16.15
2022-09-23T05:34:06.358Z,12.60
2022-09-23T05:39:05.355Z,14.10
2022-09-23T05:41:32.293Z,12.32
2022-09-23T05:43:59.762Z,12.68
2022-09-23T05:46:28.557Z,12.93
2022-09-23T05:48:58.714Z,13.27
2022-09-23T05:51:30.947Z,11.98
2022-09-23T05:53:58.790Z,13.15
2022-09-23T05:56:27.391Z,16.75
2022-09-23T05:58:55.320Z,16.27
2022-09-23T06:01:26.456Z,19.40
2022-09-23T06:03:54.322Z,18.15
2022-09-23T06:06:26.183Z,20.60
2022-09-23T06:08:53.064Z,16.40
2022-09-23T06:11:21.422Z,21.73
2022-09-23T06:19:13.261Z,25.30
2022-09-23T06:21:40.586Z,21.20
2022-09-23T06:24:07.915Z,24.85
2022-09-23T06:26:35.651Z,29.77
2022-09-23T06:29:02.795Z,18.60
2022-09-23T06:31:29.644Z,21.13
2022-09-23T06:34:08.375Z,24.00
2022-09-23T06:36:43.092Z,25.58
2022-09-23T06:39:10.332Z,20.10
2022-09-23T06:41:36.812Z,26.67
2022-09-23T06:44:03.509Z,26.13
2022-09-23T06:46:31.639Z,20.42
2022-09-23T06:48:58.306Z,27.60
2022-09-23T06:51:24.826Z,22.50
2022-09-23T06:53:51.480Z,24.30
2022-09-23T06:56:19.982Z,25.60
2022-09-23T06:58:46.932Z,30.85
2022-09-23T07:01:19.862Z,25.42
2022-09-23T07:03:48.291Z,20.13
2022-09-23T07:06:15.493Z,25.67
2022-09-23T07:08:51.155Z,27.05
2022-09-23T07:11:19.417Z,18.52
2022-09-23T07:13:46.049Z,17.60
2022-09-23T07:16:12.676Z,19.15
2022-09-23T07:18:41.029Z,18.13
2022-09-23T07:21:14.946Z,20.90
2022-09-23T07:23:42.515Z,17.88
2022-09-23T07:26:09.149Z,20.00
2022-09-23T07:28:37.071Z,17.33
2022-09-23T07:31:09.521Z,16.98
2022-09-23T07:33:37.505Z,18.48
2022-09-23T07:36:09.078Z,19.70
2022-09-23T07:38:36.529Z,19.98
2022-09-23T07:41:05.195Z,15.77
2022-09-23T07:43:34.550Z,14.30
2022-09-23T07:46:03.153Z,21.20
2022-09-23T07:48:34.033Z,18.20
2022-09-23T07:51:06.300Z,17.40
2022-09-23T07:53:33.364Z,13.98
2022-09-23T07:55:59.943Z,22.27
2022-09-23T07:58:26.512Z,14.50
2022-09-23T08:00:54.127Z,16.88
2022-09-23T08:03:21.243Z,15.82
2022-09-23T08:05:47.874Z,17.05
2022-09-23T08:08:14.386Z,16.70
2022-09-23T08:10:40.945Z,18.25
2022-09-23T08:13:07.490Z,16.00
2022-09-23T08:15:34.305Z,18.33
2022-09-23T08:18:01.201Z,21.67
2022-09-23T08:20:47.850Z,17.50
2022-09-23T08:23:16.738Z,13.52
2022-09-23T08:25:47.027Z,20.17
2022-09-23T08:28:18.659Z,19.77
2022-09-23T08:30:48.591Z,22.02
2022-09-23T08:33:19.657Z,14.18
2022-09-23T08:35:49.256Z,12.55
2022-09-23T08:43:54.721Z,13.95
2022-09-23T08:46:26.852Z,11.82
2022-09-23T08:48:53.769Z,12.02
2022-09-23T08:51:25.616Z,14.18
2022-09-23T08:53:52.397Z,19.50
2022-09-23T08:56:22.695Z,14.90
2022-09-23T08:59:14.748Z,21.75
2022-09-23T09:01:47.355Z,15.98
2022-09-23T09:04:35.628Z,17.90
2022-09-23T09:07:34.590Z,15.82
2022-09-23T09:10:28.286Z,17.98
2022-09-23T09:13:02.059Z,13.52
2022-09-23T09:15:28.787Z,16.00
2022-09-23T09:18:07.805Z,13.88
2022-09-23T09:20:59.287Z,16.13
2022-09-23T09:23:43.665Z,15.07
2022-09-23T09:26:17.522Z,11.55
2022-09-23T09:28:51.210Z,14.88
2022-09-23T09:31:26.974Z,12.90
2022-09-23T09:33:57.823Z,11.57
2022-09-23T09:36:33.141Z,11.77
2022-09-23T09:38:59.784Z,10.88
2022-09-23T09:41:31.196Z,15.55
2022-09-23T09:44:00.591Z,16.02
2022-09-23T09:46:52.070Z,13.80
2022-09-23T09:49:25.075Z,13.43
2022-09-23T09:52:13.428Z,12.30
2022-09-23T09:54:40.034Z,14.45
2022-09-23T09:57:16.658Z,11.88
2022-09-23T09:59:44.149Z,15.77
2022-09-23T10:02:26.849Z,13.32
2022-09-23T10:05:02.467Z,14.98
2022-09-23T10:07:31.436Z,13.73
2022-09-23T10:10:06.111Z,14.25
2022-09-23T10:12:47.228Z,17.88
2022-09-23T10:15:33.147Z,15.02
2022-09-23T10:18:02.924Z,13.68
2022-09-23T10:20:38.201Z,11.02
2022-09-23T10:23:16.492Z,12.73
2022-09-23T10:25:42.990Z,14.15
2022-09-23T10:28:41.131Z,13.20
2022-09-23T10:31:25.022Z,14.00
2022-09-23T10:34:00.406Z,12.55
2022-09-23T10:36:28.293Z,12.77
2022-09-23T10:39:19.429Z,12.15
2022-09-23T10:42:17.186Z,11.20
2022-09-23T10:45:18.094Z,12.07
2022-09-23T10:47:54.816Z,11.60
2022-09-23T10:50:34.713Z,11.75
2022-09-23T10:53:28.749Z,8.63
2022-09-23T10:56:13.603Z,12.63
2022-09-23T10:58:52.421Z,15.13
2022-09-23T11:01:37.722Z,12.40
2022-09-23T11:04:38.477Z,10.80
2022-09-23T11:07:17.205Z,12.40
2022-09-23T11:10:00.343Z,11.43
2022-09-23T11:12:55.959Z,13.85
2022-09-23T11:15:44.061Z,12.65
2022-09-23T11:18:16.627Z,11.65
2022-09-23T11:20:51.448Z,13.30
2022-09-23T11:23:40.651Z,22.10
2022-09-23T11:26:30.607Z,13.20
2022-09-23T11:29:06.832Z,17.80
2022-09-23T11:31:48.710Z,11.43
2022-09-23T11:34:34.936Z,11.63
2022-09-23T11:37:09.153Z,10.32
2022-09-23T11:39:40.235Z,12.50
2022-09-23T11:42:10.730Z,9.48
2022-09-23T11:44:41.155Z,6.65
2022-09-23T11:47:22.546Z,8.15
2022-09-23T11:50:02.820Z,9.60
2022-09-23T11:52:33.946Z,10.07
2022-09-23T11:55:22.643Z,10.55
2022-09-23T11:58:25.346Z,9.75
2022-09-23T12:01:01.186Z,14.30
2022-09-23T12:03:52.335Z,8.80
2022-09-23T12:06:26.870Z,24.38
2022-09-23T12:09:02.533Z,13.48
2022-09-23T12:11:58.919Z,9.25
2022-09-23T12:14:46.923Z,9.25
2022-09-23T12:17:44.667Z,13.77
2022-09-23T12:20:23.325Z,12.70
2022-09-23T12:23:13.217Z,11.07
2022-09-23T12:25:57.122Z,15.40
2022-09-23T12:28:35.653Z,11.90
2022-09-23T12:31:04.118Z,12.30
2022-09-23T12:33:32.589Z,16.02
2022-09-23T12:36:10.035Z,21.48
2022-09-23T12:38:38.773Z,12.63
2022-09-23T12:41:22.003Z,14.60
2022-09-23T12:43:56.865Z,11.45
2022-09-23T12:46:28.353Z,10.23
2022-09-23T12:48:57.924Z,17.08
2022-09-23T12:51:25.811Z,12.38
2022-09-23T12:54:18.443Z,11.73
2022-09-23T12:56:56.332Z,13.38
2022-09-23T12:59:22.851Z,12.70
2022-09-23T13:01:49.614Z,13.98
2022-09-23T13:04:53.004Z,14.88
2022-09-23T13:07:26.033Z,11.32
2022-09-23T13:09:56.565Z,12.60
2022-09-23T13:12:31.121Z,14.77
2022-09-23T13:15:03.497Z,17.85
2022-09-23T13:17:37.040Z,16.38
2022-09-23T13:20:07.048Z,12.43
2022-09-23T13:22:50.805Z,13.05
2022-09-23T13:25:26.555Z,11.02
2022-09-23T13:27:55.424Z,15.57
2022-09-23T13:30:26.655Z,17.00
2022-09-23T13:33:11.306Z,16.13
2022-09-23T13:35:40.711Z,14.43
2022-09-23T13:38:28.250Z,14.45
2022-09-23T13:40:59.048Z,18.42
2022-09-23T13:43:31.793Z,18.42
2022-09-23T13:45:58.891Z,15.20
2022-09-23T13:48:27.131Z,14.73
2022-09-23T13:50:54.731Z,16.50
2022-09-23T13:53:29.265Z,17.13
2022-09-23T13:56:05.034Z,15.02
2022-09-23T13:58:33.311Z,17.15
2022-09-23T14:01:00.026Z,15.35
2022-09-23T14:03:37.703Z,15.77
2022-09-23T14:06:15.562Z,15.55
2022-09-23T14:08:45.293Z,13.90
2022-09-23T14:11:19.529Z,13.13
2022-09-23T14:13:48.721Z,15.95
2022-09-23T14:16:16.213Z,13.93
2022-09-23T14:18:47.123Z,18.60
2022-09-23T14:21:28.717Z,17.48
2022-09-23T14:23:55.338Z,14.05
2022-09-23T14:26:23.657Z,14.23
2022-09-23T14:28:50.387Z,17.73
2022-09-23T14:31:17.057Z,15.98
2022-09-23T14:33:43.671Z,15.45
2022-09-23T14:36:34.601Z,19.13
2022-09-23T14:39:09.500Z,18.58
2022-09-23T14:41:45.043Z,20.40
2022-09-23T14:44:22.632Z,15.63
2022-09-23T14:46:58.007Z,18.48
2022-09-23T14:49:24.821Z,18.10
2022-09-23T14:51:56.070Z,17.85
2022-09-23T14:54:42.159Z,17.92
2022-09-23T14:57:23.944Z,20.45
2022-09-23T15:00:14.471Z,22.92
2022-09-23T15:02:45.684Z,25.80
2022-09-23T15:05:21.750Z,21.83
2022-09-23T15:07:50.972Z,20.42
2022-09-23T15:10:27.726Z,24.02
2022-09-23T15:12:55.762Z,25.75
2022-09-23T15:15:28.034Z,22.42
2022-09-23T15:17:54.750Z,24.67
2022-09-23T15:20:26.374Z,30.15
2022-09-23T15:22:55.148Z,25.25
2022-09-23T15:25:36.248Z,31.23
2022-09-23T15:28:10.193Z,23.88
2022-09-23T15:30:38.165Z,28.30
2022-09-23T15:33:05.178Z,28.48
2022-09-23T15:35:32.178Z,28.48
2022-09-23T15:38:03.265Z,29.08
2022-09-23T15:40:32.432Z,30.98
2022-09-23T15:43:07.105Z,33.38
2022-09-23T15:45:44.685Z,28.13
2022-09-23T15:48:16.207Z,30.38
2022-09-23T15:50:42.938Z,27.80
2022-09-23T15:53:18.743Z,29.70
2022-09-23T15:55:45.621Z,25.95
2022-09-23T15:58:12.195Z,33.58
2022-09-23T16:00:38.805Z,27.05
2022-09-23T16:03:06.608Z,24.75
2022-09-23T16:05:37.772Z,30.73
2022-09-23T16:08:10.103Z,28.38
2022-09-23T16:10:37.655Z,26.15
2022-09-23T16:13:07.757Z,27.30
2022-09-23T16:15:34.425Z,30.58
2022-09-23T16:18:01.564Z,30.60
2022-09-23T16:20:29.920Z,29.23
2022-09-23T16:23:00.705Z,25.17
2022-09-23T16:25:29.846Z,24.35
2022-09-23T16:27:56.520Z,28.38
2022-09-23T16:30:24.201Z,24.20
2022-09-23T16:32:51.775Z,24.17
2022-09-23T16:35:22.896Z,22.45
2022-09-23T16:37:50.132Z,20.95
2022-09-23T16:40:22.245Z,17.17
2022-09-23T16:42:50.321Z,23.08
2022-09-23T16:45:18.133Z,23.10
2022-09-23T16:47:46.454Z,29.23
2022-09-23T16:50:14.275Z,21.52
2022-09-23T16:52:41.714Z,22.77
2022-09-23T16:55:10.385Z,23.33
2022-09-23T16:57:38.229Z,25.10
2022-09-23T17:00:26.442Z,26.15
2022-09-23T17:03:11.549Z,26.15
2022-09-23T17:05:38.478Z,28.10
2022-09-23T17:08:05.668Z,23.23
2022-09-23T17:10:32.963Z,21.90
2022-09-23T17:13:00.525Z,29.02
2022-09-23T17:15:27.102Z,24.15
2022-09-23T17:17:53.687Z,26.65
2022-09-23T17:20:20.405Z,28.45
2022-09-23T17:22:46.983Z,26.60
2022-09-23T17:25:13.468Z,24.77
2022-09-23T17:27:39.974Z,28.92
2022-09-23T17:30:07.257Z,28.52
2022-09-23T17:32:33.965Z,25.52
2022-09-23T17:35:04.492Z,24.63
2022-09-23T17:37:32.318Z,21.85
2022-09-23T17:39:59.598Z,25.70
2022-09-23T17:42:26.316Z,26.08
2022-09-23T17:44:52.824Z,30.33
2022-09-23T17:47:19.287Z,24.15
2022-09-23T17:49:47.605Z,26.35
2022-09-23T17:52:14.115Z,30.48
2022-09-23T17:54:40.613Z,34.92
2022-09-23T17:57:07.568Z,28.20
2022-09-23T17:59:34.620Z,34.45
2022-09-23T18:02:01.221Z,32.53
2022-09-23T18:04:27.750Z,31.38
2022-09-23T18:06:54.247Z,21.65
2022-09-23T18:09:21.195Z,20.13
2022-09-23T18:11:49.650Z,21.05
2022-09-23T18:14:22.931Z,21.17
2022-09-23T18:16:53.643Z,19.45
2022-09-23T18:19:21.780Z,19.95
2022-09-23T18:21:54.501Z,20.15
2022-09-23T18:24:31.899Z,20.77
2022-09-23T18:26:59.993Z,21.05
2022-09-23T18:29:26.850Z,20.35
2022-09-23T18:31:53.452Z,15.75
2022-09-23T18:34:20.422Z,20.58
2022-09-23T18:36:47.128Z,17.63
2022-09-23T18:39:13.660Z,15.95
2022-09-23T18:41:41.044Z,15.82
2022-09-23T18:44:07.844Z,17.67
2022-09-23T18:46:34.409Z,16.63
2022-09-23T18:49:19.589Z,14.20
2022-09-23T18:51:56.694Z,16.60
2022-09-23T18:54:24.908Z,16.23
2022-09-23T18:56:52.754Z,18.55
2022-09-23T18:59:21.041Z,16.45
2022-09-23T19:01:49.918Z,14.75
2022-09-23T19:04:19.028Z,12.15
2022-09-23T19:06:45.642Z,11.05
2022-09-23T19:09:12.393Z,13.25
2022-09-23T19:11:39.097Z,13.20
2022-09-23T19:14:10.825Z,11.68
2022-09-23T19:16:39.017Z,13.07
2022-09-23T19:19:05.965Z,12.80
2022-09-23T19:21:33.420Z,11.57
2022-09-23T19:24:05.523Z,10.10
2022-09-23T19:26:38.119Z,10.13
2022-09-23T19:29:05.976Z,11.55
2022-09-23T19:31:34.848Z,14.57
2022-09-23T19:34:10.641Z,10.75
2022-09-23T19:36:39.768Z,17.73
2022-09-23T19:39:26.908Z,9.77
2022-09-23T19:41:56.705Z,13.98
2022-09-23T19:44:25.118Z,11.85
2022-09-23T19:46:55.886Z,10.52
2022-09-23T19:49:23.909Z,9.82
2022-09-23T19:51:50.390Z,11.63
2022-09-23T19:54:20.867Z,11.63
2022-09-23T19:56:50.392Z,12.32
2022-09-23T19:59:19.117Z,12.98
2022-09-23T20:01:47.368Z,14.40
2022-09-23T20:04:15.807Z,21.08
2022-09-23T20:06:42.570Z,18.60
2022-09-23T20:09:09.283Z,21.95
2022-09-23T20:11:36.025Z,23.08
2022-09-23T20:14:04.088Z,22.58
2022-09-23T20:16:32.941Z,23.20
2022-09-23T20:19:00.704Z,24.52
2022-09-23T20:21:28.379Z,24.08
2022-09-23T20:23:55.534Z,29.73
2022-09-23T20:26:40.807Z,29.05
2022-09-23T20:29:08.859Z,28.60
2022-09-23T20:31:35.531Z,31.02
2022-09-23T20:34:05.546Z,31.45
2022-09-23T20:36:33.125Z,32.83
2022-09-23T20:39:01.438Z,33.83
2022-09-23T20:41:29.743Z,31.67
2022-09-23T20:43:59.486Z,30.48
2022-09-23T20:46:29.436Z,31.75
2022-09-23T20:48:56.817Z,32.33
2022-09-23T20:51:24.697Z,28.63
2022-09-23T20:53:52.942Z,30.30
2022-09-23T20:56:23.035Z,33.10
2022-09-23T20:58:50.785Z,33.58
2022-09-23T21:01:18.227Z,30.02
2022-09-23T21:03:46.963Z,31.27
2022-09-23T21:06:16.430Z,32.28
2022-09-23T21:08:44.437Z,30.70
2022-09-23T21:11:12.857Z,33.33
2022-09-23T21:13:39.392Z,33.80
2022-09-23T21:16:16.205Z,40.10
2022-09-23T21:18:43.465Z,40.30
2022-09-23T21:21:10.950Z,42.55
2022-09-23T21:23:38.752Z,48.95
2022-09-23T21:26:06.822Z,47.25
2022-09-23T21:28:38.506Z,47.70
2022-09-23T21:31:07.849Z,47.53
2022-09-23T21:33:36.651Z,39.40
2022-09-23T21:36:04.895Z,38.92
2022-09-23T21:38:34.277Z,42.25
2022-09-23T21:41:02.067Z,35.17
2022-09-23T21:43:33.694Z,37.20
2022-09-23T21:46:05.651Z,35.45
2022-09-23T21:48:41.176Z,28.88
2022-09-23T21:51:19.200Z,27.27
2022-09-23T21:53:46.512Z,25.35
2022-09-23T21:56:20.518Z,24.10
2022-09-23T21:58:48.058Z,25.70
2022-09-23T22:01:20.050Z,24.30
2022-09-23T22:03:52.327Z,26.00
2022-09-23T22:06:21.612Z,27.15
2022-09-23T22:08:58.970Z,26.77
2022-09-23T22:11:46.241Z,31.23
2022-09-23T22:14:14.271Z,30.30
2022-09-23T22:16:41.719Z,30.83
2022-09-23T22:19:09.307Z,27.92
2022-09-23T22:21:37.295Z,29.38
2022-09-23T22:24:05.916Z,24.90
2022-09-23T22:26:40.840Z,24.63
2022-09-23T22:29:27.300Z,25.33
2022-09-23T22:32:12.915Z,25.85
2022-09-23T22:37:21.107Z,27.42
2022-09-23T22:39:47.671Z,26.60
2022-09-23T22:42:14.379Z,28.50
2022-09-23T22:44:40.932Z,27.33
2022-09-23T22:47:08.032Z,27.08
2022-09-23T22:49:34.795Z,28.17
2022-09-23T22:52:03.995Z,30.15
2022-09-23T22:54:33.914Z,25.98
2022-09-23T22:57:03.278Z,26.75
2022-09-23T22:59:29.883Z,27.17
2022-09-23T23:01:57.244Z,28.15
2022-09-23T23:04:24.016Z,25.23
2022-09-23T23:06:51.081Z,28.15
2022-09-23T23:09:18.960Z,31.65
2022-09-23T23:11:45.804Z,24.38
2022-09-23T23:14:13.488Z,27.77
2022-09-23T23:16:40.827Z,28.52
2022-09-23T23:19:10.074Z,25.88
2022-09-23T23:21:37.060Z,25.65
2022-09-23T23:24:04.843Z,27.42
2022-09-23T23:26:33.253Z,27.38
2022-09-23T23:29:00.667Z,23.92
2022-09-23T23:31:28.836Z,20.80
2022-09-23T23:33:55.477Z,20.45
2022-09-23T23:36:22.973Z,20.17
2022-09-23T23:38:51.510Z,19.65
2022-09-23T23:41:20.306Z,18.33
2022-09-23T23:43:47.469Z,18.65
2022-09-23T23:46:14.921Z,17.90
2022-09-23T23:48:45.403Z,18.17
2022-09-23T23:51:11.920Z,18.27
2022-09-23T23:53:39.843Z,19.90
2022-09-23T23:56:08.900Z,22.02
2022-09-23T23:58:35.798Z,20.55
